Latest Weather Observations for Hindmarsh Island

IDS60801

Issued at 11:01 pm CDT Sunday 14 February 2016 (issued every 30 minutes, with the page automatically refreshed every 10 minutes)

About weather observations | Map of weather stations | Latest weather observations for SA | Other Formats
Station Details ID: 023894 Name: HINDMARSH ISLAND AWS Lat: -35.52 Lon: 138.82 Height: 11.0 m
Data from the previous 72 hours. | See also: Recent months at Hindmarsh Island
Date/Time
CDT
Temp
°C
App
Temp
°C
Dew
Point
Rel
Hum
%
Delta-T
°C
Wind Press
QNH
hPa
Press
MSL
hPa
Rain
since 9 am
mm
Dir
 
Spd
km/h
Gust
km/h
Spd
kts
Gust
kts
14/11:00pm 18.2 15.7 12.4 69 3.2 SSW 17 20 9 11 1017.1 - 0.0
14/10:30pm 18.0 15.2 12.5 70 3.1 SSW 19 24 10 13 1017.3 - 0.0
14/10:00pm 18.1 14.6 12.3 69 3.2 SSW 22 28 12 15 1017.1 - 0.0
14/09:30pm 18.4 15.1 12.8 70 3.1 S 22 26 12 14 1016.9 - 0.0
14/09:00pm 18.4 14.4 13.0 71 3.0 S 26 32 14 17 1016.6 1016.4 0.0
14/08:30pm 18.2 14.3 12.0 67 3.4 S 24 30 13 16 1016.1 - 0.0
14/08:00pm 18.5 14.2 12.0 66 3.6 SSW 26 32 14 17 1015.9 - 0.0
14/07:30pm 18.8 14.6 12.3 66 3.6 SSW 26 30 14 16 1015.8 - 0.0
14/07:00pm 19.2 15.6 12.9 67 3.6 SSW 24 28 13 15 1015.6 - 0.0
14/06:30pm 19.1 14.7 12.8 67 3.5 SSW 28 32 15 17 1015.4 - 0.0
14/06:00pm 19.5 14.4 13.2 67 3.6 S 32 35 17 19 1015.2 1015.1 0.0
14/05:30pm 20.3 16.1 13.5 65 3.9 S 28 33 15 18 1015.1 - 0.0
14/05:00pm 20.7 16.1 13.6 64 4.1 S 30 35 16 19 1015.0 - 0.0
14/04:30pm 21.7 17.6 12.8 57 5.1 SSW 26 32 14 17 1015.0 - 0.0
14/04:00pm 21.5 16.9 12.4 56 5.1 SSW 28 33 15 18 1015.1 - 0.0
14/03:30pm 22.2 18.1 12.7 55 5.4 SSW 26 30 14 16 1015.3 - 0.0
14/03:00pm 21.6 17.5 12.7 57 5.1 SSW 26 32 14 17 1015.7 1015.6 0.0
14/02:30pm 21.3 17.8 12.2 56 5.1 SW 22 28 12 15 1015.9 - 0.0
14/02:00pm 21.4 17.8 12.0 55 5.3 SW 22 26 12 14 1015.9 - 0.0
14/01:30pm 21.8 18.2 12.9 57 5.1 SW 24 30 13 16 1016.0 - 0.0
14/01:00pm 21.6 19.2 13.8 61 4.5 SW 19 24 10 13 1016.0 - 0.0
14/12:30pm 21.3 18.1 13.2 60 4.6 SW 22 30 12 16 1016.1 - 0.0
14/12:00pm 22.0 19.3 12.8 56 5.2 SW 19 26 10 14 1016.4 1016.2 0.0
14/11:30am 20.7 17.7 12.4 59 4.7 WSW 20 28 11 15 1016.4 - 0.0
14/11:00am 20.1 17.3 13.1 64 4.0 SW 20 26 11 14 1016.4 - 0.0
14/10:30am 21.3 18.1 11.9 55 5.3 SSW 20 26 11 14 1016.4 - 0.0
14/10:00am 20.7 17.7 12.4 59 4.7 SSW 20 26 11 14 1016.3 - 0.0
14/09:30am 20.1 17.1 12.1 60 4.5 SSW 19 22 10 12 1016.0 - 0.0
14/09:00am 19.7 15.9 12.5 63 4.0 SSW 24 30 13 16 1015.8 1015.7 0.0
14/08:30am 19.0 14.4 12.3 65 3.7 SSW 28 33 15 18 1015.6 - 0.0
14/08:00am 18.3 14.1 12.5 69 3.2 SW 26 33 14 18 1015.1 - 0.0
14/07:30am 17.7 14.7 13.6 77 2.3 W 22 28 12 15 1014.8 - 0.0
14/07:00am 16.5 14.5 12.7 78 2.1 WNW 15 19 8 10 1014.4 - 0.0
14/06:30am 16.2 14.6 12.7 80 1.9 W 13 19 7 10 1014.0 - 0.0
14/06:00am 16.2 14.3 12.9 81 1.8 WNW 15 20 8 11 1013.8 1013.6 0.0
14/05:30am 16.4 14.4 12.8 79 2.0 WNW 15 19 8 10 1013.4 - 0.0
14/05:00am 16.9 14.9 12.8 77 2.3 WNW 15 19 8 10 1013.1 - 0.0
14/04:30am 16.9 15.2 12.6 76 2.4 WNW 13 17 7 9 1012.8 - 0.0
14/04:00am 17.4 16.0 12.3 72 2.8 W 11 20 6 11 1012.8 - 0.0
14/03:30am 17.6 14.4 11.4 67 3.4 SSW 19 24 10 13 1012.7 - 0.0
14/03:00am 18.0 14.9 12.2 69 3.2 SSW 20 26 11 14 1012.9 1012.8 0.0
14/02:30am 17.9 14.0 12.1 69 3.2 SSW 24 32 13 17 1013.0 - 0.0
14/02:00am 17.9 14.5 12.4 70 3.1 SSW 22 26 12 14 1013.2 - 0.0
14/01:30am 18.0 14.2 12.5 70 3.1 SSW 24 28 13 15 1013.4 - 0.0
14/01:00am 18.2 14.7 13.3 73 2.8 SSW 24 30 13 16 1013.6 - 0.0
14/12:30am 18.4 14.5 13.3 72 2.9 SSW 26 32 14 17 1013.7 - 0.0
14/12:00am 18.5 14.5 12.9 70 3.1 SSW 26 32 14 17 1013.8 1013.7 0.0
 
Date/Time
CDT
Temp
°C
App
Temp
°C
Dew
Point
Rel
Hum
%
Delta-T
°C
Wind Press
QNH
hPa
Press
MSL
hPa
Rain
since 9 am
mm
Dir
 
Spd
km/h
Gust
km/h
Spd
kts
Gust
kts
13/11:30pm 18.8 14.5 13.2 70 3.2 SSW 28 35 15 19 1013.9 - 0.0
13/11:00pm 18.7 13.5 12.9 69 3.3 SSW 32 39 17 21 1014.1 - 0.0
13/10:30pm 19.0 14.3 14.3 74 2.7 SSW 32 37 17 20 1014.2 - 0.0
13/10:00pm 19.0 15.5 14.5 75 2.6 SSW 26 32 14 17 1014.0 - 0.0
13/09:30pm 19.1 15.1 14.1 73 2.9 SSW 28 33 15 18 1013.9 - 0.0
13/09:00pm 19.3 14.3 13.9 71 3.1 SSW 33 41 18 22 1013.7 1013.6 0.0
13/08:30pm 19.4 13.9 14.6 74 2.8 SSW 37 43 20 23 1013.2 - 0.0
13/08:00pm 19.8 15.7 15.0 74 2.8 SSW 30 35 16 19 1012.9 - 0.0
13/07:30pm 20.2 17.1 15.6 75 2.7 SW 26 30 14 16 1012.6 - 0.0
13/07:00pm 20.5 18.2 15.7 74 2.9 SW 22 26 12 14 1012.5 - 0.0
13/06:30pm 20.2 17.9 15.6 75 2.7 SW 22 30 12 16 1012.3 - 0.0
13/06:00pm 20.3 17.1 15.3 73 3.0 SW 26 32 14 17 1012.1 1012.0 0.0
13/05:30pm 20.6 17.6 16.8 79 2.3 SSW 28 33 15 18 1012.2 - 0.0
13/05:00pm 20.6 16.6 16.6 78 2.4 SSW 33 41 18 22 1012.2 - 0.0
13/04:30pm 21.4 17.7 17.4 78 2.5 SW 33 44 18 24 1012.1 - 0.0
13/04:00pm 21.4 18.6 17.4 78 2.5 SW 28 37 15 20 1012.1 - 0.0
13/03:30pm 21.6 18.5 17.4 77 2.6 SW 30 35 16 19 1011.6 - 0.0
13/03:00pm 21.8 18.2 17.2 75 2.8 SSW 32 35 17 19 1011.4 1011.5 0.0
13/02:30pm 22.5 19.7 17.2 72 3.3 SSW 28 33 15 18 1011.8 - 0.0
13/02:00pm 22.0 19.7 16.7 72 3.2 SSW 24 30 13 16 1012.0 - 0.0
13/01:30pm 22.6 19.8 16.4 68 3.8 SSW 26 32 14 17 1011.9 - 0.0
13/01:00pm 21.8 19.6 15.9 69 3.5 SSW 22 28 12 15 1012.0 - 0.0
13/12:30pm 23.2 21.8 17.0 68 3.8 SW 20 24 11 13 1012.1 - 0.0
13/12:00pm 21.7 19.2 16.2 71 3.3 SW 24 28 13 15 1012.3 1012.2 0.0
13/11:30am 20.9 18.1 16.3 75 2.8 SSW 26 32 14 17 1012.4 - 0.0
13/11:00am 21.0 18.5 16.2 74 2.9 SSW 24 30 13 16 1012.3 - 0.0
13/10:30am 22.6 19.6 16.9 70 3.5 SSW 28 33 15 18 1012.2 - 0.0
13/10:00am 21.0 18.1 16.2 74 2.9 SW 26 28 14 15 1012.2 - 0.0
13/09:30am 20.9 19.1 16.1 74 2.9 SW 20 28 11 15 1012.1 - 0.0
13/09:00am 21.1 20.9 14.7 67 3.8 SW 9 15 5 8 1012.1 1012.0 0.0
13/08:30am 20.3 19.9 14.0 67 3.6 NNW 9 11 5 6 1011.7 - 0.0
13/08:00am 19.2 17.8 14.5 74 2.7 NW 15 17 8 9 1011.3 - 0.0
13/07:30am 19.8 19.4 16.1 79 2.2 WSW 13 17 7 9 1011.5 - 0.0
13/07:00am 19.5 18.7 16.2 81 2.0 SW 15 19 8 10 1011.2 - 0.0
13/06:30am 19.2 18.8 16.1 82 1.8 WSW 13 17 7 9 1010.7 - 0.0
13/06:00am 18.7 18.0 15.4 81 1.9 WSW 13 17 7 9 1010.4 1010.3 0.0
13/05:30am 19.3 18.0 14.8 75 2.6 W 15 20 8 11 1009.9 - 0.0
13/05:00am 18.5 16.7 13.4 72 2.9 W 15 20 8 11 1009.8 - 0.0
13/04:30am 17.1 16.7 14.2 83 1.7 WNW 9 11 5 6 1009.8 - 0.0
13/04:00am 16.9 17.2 14.9 88 1.2 W 7 9 4 5 1009.8 - 0.0
13/03:30am 16.9 17.4 15.1 89 1.0 W 6 7 3 4 1010.0 - 0.0
13/03:00am 16.9 16.8 14.9 88 1.2 NNE 9 9 5 5 1010.1 1009.9 0.0
13/02:30am 17.5 18.6 15.5 88 1.2 N 4 7 2 4 1010.5 - 0.0
13/02:00am 17.0 18.7 15.2 89 1.0 CALM 0 4 0 2 1010.6 - 0.0
13/01:30am 17.3 17.7 15.3 88 1.2 N 7 9 4 5 1010.9 - 0.0
13/01:00am 16.7 16.5 14.7 88 1.2 N 9 13 5 7 1011.0 - 0.0
13/12:30am 17.2 17.6 15.2 88 1.2 NNW 7 9 4 5 1011.3 - 0.0
13/12:00am 17.1 17.4 15.1 88 1.2 N 7 9 4 5 1011.5 1011.4 0.0
 
Date/Time
CDT
Temp
°C
App
Temp
°C
Dew
Point
Rel
Hum
%
Delta-T
°C
Wind Press
QNH
hPa
Press
MSL
hPa
Rain
since 9 am
mm
Dir
 
Spd
km/h
Gust
km/h
Spd
kts
Gust
kts
12/11:30pm 17.3 18.2 15.1 87 1.3 ENE 4 6 2 3 1011.9 - 0.0
12/11:00pm 17.2 18.9 15.2 88 1.2 CALM 0 0 0 0 1011.9 - 0.0
12/10:30pm 16.0 16.0 13.5 85 1.4 NE 6 9 3 5 1011.9 - 0.0
12/10:00pm 16.7 16.9 14.2 85 1.4 NNE 6 9 3 5 1012.1 - 0.0
12/09:30pm 17.0 16.0 14.5 85 1.4 NE 13 15 7 8 1011.8 - 0.0
12/09:00pm 17.4 17.1 14.3 82 1.8 NNE 9 13 5 7 1011.9 1011.8 0.0
12/08:30pm 18.4 18.0 15.1 81 1.9 SSW 11 13 6 7 1012.3 - 0.0
12/08:00pm 19.0 17.8 15.1 78 2.3 SSW 15 19 8 10 1012.3 - 0.0
12/07:30pm 19.9 17.0 16.0 78 2.3 SSW 26 35 14 19 1012.4 - 0.0
12/07:00pm 20.4 16.9 15.6 74 2.9 SSW 28 33 15 18 1012.2 - 0.0
12/06:30pm 21.2 18.4 16.4 74 2.9 SSW 26 30 14 16 1012.0 - 0.0
12/06:00pm 21.2 18.8 16.4 74 2.9 S 24 28 13 15 1011.8 1011.7 0.0
12/05:30pm 21.5 19.6 15.8 70 3.4 S 20 24 11 13 1011.8 - 0.0
12/05:00pm 21.9 19.8 16.2 70 3.4 S 22 26 12 14 1011.8 - 0.0
12/04:30pm 22.3 19.7 15.9 67 3.9 S 24 28 13 15 1012.0 - 0.0
12/04:00pm 22.5 20.1 16.5 69 3.7 S 24 28 13 15 1012.1 - 0.0
12/03:30pm 22.6 20.6 16.4 68 3.8 SSW 22 28 12 15 1012.3 - 0.0
12/03:00pm 23.2 21.9 16.7 67 4.0 S 19 22 10 12 1012.7 1012.6 0.0
12/02:30pm 22.9 21.1 15.5 63 4.4 S 19 20 10 11 1013.0 - 0.0
12/02:00pm 22.9 21.7 16.0 65 4.2 S 17 19 9 10 1013.2 - 0.0
12/01:30pm 22.4 20.8 15.0 63 4.4 S 17 19 9 10 1013.6 - 0.0
12/01:00pm 22.9 21.4 15.2 62 4.6 S 17 20 9 11 1013.9 - 0.0
12/12:30pm 22.4 20.6 15.5 65 4.1 S 19 20 10 11 1014.3 - 0.0
12/12:00pm 21.4 19.7 14.8 66 3.9 S 17 20 9 11 1014.6 1014.5 0.0
12/11:30am 21.4 20.3 15.3 68 3.6 S 15 17 8 9 1014.9 - 0.0
12/11:00am 21.0 19.7 14.9 68 3.6 S 15 19 8 10 1015.1 - 0.0
12/10:30am 20.5 19.2 13.7 65 3.9 SSE 13 15 7 8 1015.2 - 0.0
12/10:00am 20.7 20.6 13.9 65 3.9 N 7 11 4 6 1015.7 - 0.0
12/09:30am 19.6 19.5 14.0 70 3.2 NNW 7 11 4 6 1015.8 - 0.0
12/09:00am 19.0 19.2 14.1 73 2.8 NE 6 9 3 5 1016.1 1016.0 0.0
12/08:30am 17.8 17.1 13.1 74 2.6 SE 9 11 5 6 1016.1 - 0.0
12/08:00am 17.5 17.4 13.8 79 2.1 E 7 9 4 5 1016.1 - 0.0
12/07:30am 16.3 15.8 13.8 85 1.4 E 9 11 5 6 1015.9 - 0.0
12/07:00am 15.4 14.7 13.2 87 1.2 E 9 11 5 6 1015.7 - 0.0
12/06:30am 15.6 14.8 12.9 84 1.5 E 9 11 5 6 1015.5 - 0.0
12/06:00am 16.8 15.6 14.1 84 1.5 SE 13 15 7 8 1015.5 1015.4 0.0
12/05:30am 17.0 15.5 14.1 83 1.7 SE 15 19 8 10 1015.2 - 0.0
12/05:00am 17.1 15.7 14.4 84 1.5 SSE 15 19 8 10 1015.2 - 0.0
12/04:30am 17.2 15.8 14.5 84 1.6 SSE 15 17 8 9 1015.0 - 0.0
12/04:00am 17.2 16.2 14.5 84 1.6 SSE 13 15 7 8 1015.2 - 0.0
12/03:30am 17.4 16.0 14.5 83 1.7 S 15 19 8 10 1015.3 - 0.0
12/03:00am 17.4 16.0 14.5 83 1.7 SSE 15 17 8 9 1015.5 1015.4 0.0
12/02:30am 17.5 15.8 14.6 83 1.7 SSE 17 20 9 11 1015.6 - 0.0
12/02:00am 17.5 15.7 14.4 82 1.8 SSE 17 20 9 11 1015.7 - 0.0
12/01:30am 17.7 15.6 14.6 82 1.8 SSE 19 22 10 12 1016.0 - 0.0
12/01:00am 17.8 15.1 14.5 81 1.9 S 22 26 12 14 1016.3 - 0.0
12/12:30am 18.0 15.0 14.7 81 1.9 SSE 24 30 13 16 1016.5 - 0.0
12/12:00am 17.9 14.4 14.6 81 1.9 SSE 26 33 14 18 1016.7 1016.6 0.0
 
Date/Time
CDT
Temp
°C
App
Temp
°C
Dew
Point
Rel
Hum
%
Delta-T
°C
Wind Press
QNH
hPa
Press
MSL
hPa
Rain
since 9 am
mm
Dir
 
Spd
km/h
Gust
km/h
Spd
kts
Gust
kts
11/11:30pm 18.1 14.7 14.8 81 1.9 SSE 26 33 14 18 1017.1 - 0.0

Other Formats:

Comma delimited format used in spreadsheet applications
http://www.bom.gov.au/fwo/IDS60801/IDS60801.94677.axf

JavaScript Object Notation format (JSON) in row-major order
http://www.bom.gov.au/fwo/IDS60801/IDS60801.94677.json